Terminal Aerodrome Forecast
Issued by NWS Raleigh/Durham, NC

Home | Current Version | Previous Version | Text Only | Print | Product List | Glossary On
Versions: 1 2 3 4 5 6 7 8 9 10 11 12 13 14 15 16 17 18 19 20 21
000
FTUS42 KRAH 061132
TAFRDU
TAF
KRDU 061132Z 0612/0712 06010KT 4SM -RA BR SCT005 BKN010 OVC025
      TEMPO 0613/0615 3SM -RA BR OVC007
     FM061500 07011KT 1 1/2SM -RA BR OVC004
     FM062100 04005KT 4SM -DZ BR OVC004
     FM070000 34003KT 4SM BR OVC004=

USA.gov is the U.S. government's official web portal to all federal, state and local government web resources and services.